createdAt,value
2023-03-06T00:00:52.612Z,61.32
2023-03-06T00:03:20.343Z,60.79
2023-03-06T00:05:48.001Z,61.31
2023-03-06T00:08:15.168Z,60.56
2023-03-06T00:10:42.162Z,61.14
2023-03-06T00:13:13.404Z,60.67
2023-03-06T00:15:40.693Z,60.88
2023-03-06T00:18:08.065Z,60.92
2023-03-06T00:20:36.252Z,61.17
2023-03-06T00:23:03.594Z,60.89
2023-03-06T00:25:30.603Z,60.61
2023-03-06T00:27:57.891Z,61.09
2023-03-06T00:30:25.644Z,60.74
2023-03-06T00:32:53.713Z,60.95
2023-03-06T00:35:21.150Z,60.51
2023-03-06T00:37:48.521Z,60.71
2023-03-06T00:40:20.328Z,60.41
2023-03-06T00:42:48.046Z,60.38
2023-03-06T00:45:16.114Z,60.79
2023-03-06T00:47:43.633Z,60.68
2023-03-06T00:50:11.790Z,60.65
2023-03-06T00:52:39.109Z,60.84
2023-03-06T00:55:06.700Z,60.96
2023-03-06T00:57:33.734Z,60.95
2023-03-06T01:00:00.765Z,61.03
2023-03-06T01:02:27.918Z,60.83
2023-03-06T01:04:55.356Z,60.94
2023-03-06T01:07:22.410Z,60.99
2023-03-06T01:09:49.462Z,60.58
2023-03-06T01:12:16.510Z,60.59
2023-03-06T01:14:43.503Z,60.97
2023-03-06T01:17:10.714Z,60.67
2023-03-06T01:19:37.785Z,60.62
2023-03-06T01:22:04.796Z,60.92
2023-03-06T01:24:31.750Z,60.58
2023-03-06T01:26:58.797Z,60.53
2023-03-06T01:29:26.670Z,60.50
2023-03-06T01:31:53.681Z,60.46
2023-03-06T01:34:20.655Z,60.74
2023-03-06T01:36:47.696Z,60.33
2023-03-06T01:39:14.760Z,60.27
2023-03-06T01:41:41.691Z,60.43
2023-03-06T01:44:13.897Z,60.51
2023-03-06T01:46:45.398Z,60.54
2023-03-06T01:49:38.447Z,60.44
2023-03-06T01:52:12.729Z,60.13
2023-03-06T01:54:44.957Z,59.83
2023-03-06T01:57:14.929Z,60.67
2023-03-06T01:59:43.196Z,60.64
2023-03-06T02:02:12.897Z,60.15
2023-03-06T02:04:42.540Z,60.65
2023-03-06T02:07:10.701Z,60.43
2023-03-06T02:09:38.897Z,60.07
2023-03-06T02:12:13.480Z,60.36
2023-03-06T02:14:41.964Z,60.25
2023-03-06T02:17:12.502Z,60.55
2023-03-06T02:19:57.715Z,60.01
2023-03-06T02:22:31.954Z,60.24
2023-03-06T02:25:16.149Z,59.97
2023-03-06T02:27:43.331Z,59.72
2023-03-06T02:30:11.216Z,60.20
2023-03-06T02:32:38.288Z,59.64
2023-03-06T02:35:07.457Z,59.47
2023-03-06T02:37:34.496Z,59.52
2023-03-06T02:40:09.965Z,59.73
2023-03-06T02:42:36.997Z,60.26
2023-03-06T02:45:08.358Z,59.69
2023-03-06T02:47:35.336Z,59.83
2023-03-06T02:50:02.350Z,59.51
2023-03-06T02:52:30.487Z,59.99
2023-03-06T02:54:57.435Z,59.94
2023-03-06T02:57:24.338Z,59.88
2023-03-06T02:59:51.316Z,59.61
2023-03-06T03:02:18.304Z,60.02
2023-03-06T03:04:45.413Z,60.08
2023-03-06T03:07:12.562Z,59.68
2023-03-06T03:09:39.593Z,59.50
2023-03-06T03:12:07.368Z,60.02
2023-03-06T03:14:34.330Z,59.38
2023-03-06T03:17:02.753Z,59.70
2023-03-06T03:19:29.788Z,59.30
2023-03-06T03:21:56.778Z,59.72
2023-03-06T03:24:24.354Z,59.24
2023-03-06T03:26:51.374Z,59.67
2023-03-06T03:29:18.751Z,59.18
2023-03-06T03:31:45.776Z,59.24
2023-03-06T03:34:12.891Z,59.66
2023-03-06T03:36:40.228Z,59.12
2023-03-06T03:39:07.509Z,59.29
2023-03-06T03:41:34.681Z,59.50
2023-03-06T03:44:01.721Z,59.80
2023-03-06T03:46:29.015Z,59.84
2023-03-06T03:48:56.067Z,59.66
2023-03-06T03:51:23.231Z,59.58
2023-03-06T03:53:50.535Z,59.70
2023-03-06T03:56:18.035Z,59.25
2023-03-06T03:58:45.046Z,59.18
2023-03-06T04:01:12.125Z,59.40
2023-03-06T04:03:39.147Z,59.25
2023-03-06T04:06:06.531Z,59.17
2023-03-06T04:08:33.751Z,59.20
2023-03-06T04:11:01.103Z,58.89
2023-03-06T04:13:28.258Z,58.97
2023-03-06T04:15:56.414Z,58.58
2023-03-06T04:18:23.773Z,58.53
2023-03-06T04:20:51.346Z,58.44
2023-03-06T04:23:19.347Z,58.56
2023-03-06T04:25:46.875Z,58.43
2023-03-06T04:28:14.666Z,58.58
2023-03-06T04:30:42.222Z,57.66
2023-03-06T04:33:09.677Z,57.81
2023-03-06T04:35:36.909Z,57.88
2023-03-06T04:38:05.159Z,57.43
2023-03-06T04:40:34.867Z,57.33
2023-03-06T04:43:03.355Z,56.82
2023-03-06T04:45:32.155Z,56.83
2023-03-06T04:47:59.797Z,56.27
2023-03-06T04:50:28.500Z,55.90
2023-03-06T04:52:55.470Z,56.41
2023-03-06T04:55:22.567Z,56.03
2023-03-06T04:57:49.542Z,55.61
2023-03-06T05:00:20.494Z,55.60
2023-03-06T05:02:48.455Z,55.60
2023-03-06T05:05:16.729Z,55.18
2023-03-06T05:07:44.008Z,55.20
2023-03-06T05:10:13.832Z,55.06
2023-03-06T05:12:40.774Z,54.59
2023-03-06T05:15:08.633Z,54.97
2023-03-06T05:17:35.819Z,54.10
2023-03-06T05:20:06.291Z,54.25
2023-03-06T05:22:34.494Z,53.46
2023-03-06T05:25:01.838Z,53.06
2023-03-06T05:27:31.117Z,53.08
2023-03-06T05:29:58.230Z,52.96
2023-03-06T05:32:25.276Z,52.56
2023-03-06T05:34:52.348Z,53.00
2023-03-06T05:37:19.316Z,52.64
2023-03-06T05:39:46.689Z,52.42
2023-03-06T05:42:13.610Z,51.99
2023-03-06T05:44:41.939Z,52.03
2023-03-06T05:47:09.801Z,51.99
2023-03-06T05:49:37.125Z,51.19
2023-03-06T05:52:06.053Z,50.91
2023-03-06T05:54:34.551Z,50.65
2023-03-06T05:57:02.284Z,50.39
2023-03-06T05:59:29.324Z,50.53
2023-03-06T06:01:56.573Z,49.62
2023-03-06T06:04:25.022Z,49.54
2023-03-06T06:06:57.664Z,49.25
2023-03-06T06:09:25.710Z,49.01
2023-03-06T06:11:54.448Z,47.89
2023-03-06T06:14:22.005Z,48.03
2023-03-06T06:16:49.806Z,48.18
2023-03-06T06:19:20.446Z,47.99
2023-03-06T06:21:52.712Z,47.69
2023-03-06T06:24:22.417Z,47.54
2023-03-06T06:26:57.020Z,47.27
2023-03-06T06:29:25.366Z,46.94
2023-03-06T06:31:53.320Z,46.87
2023-03-06T06:34:22.079Z,46.14
2023-03-06T06:36:51.049Z,45.90
2023-03-06T06:39:20.926Z,45.67
2023-03-06T06:42:05.555Z,45.42
2023-03-06T06:44:37.910Z,45.10
2023-03-06T06:47:24.661Z,44.53
2023-03-06T06:49:53.529Z,44.50
2023-03-06T06:52:20.959Z,44.10
2023-03-06T06:54:48.214Z,44.15
2023-03-06T06:57:16.085Z,43.27
2023-03-06T06:59:43.140Z,43.08
2023-03-06T07:02:16.082Z,42.47
2023-03-06T07:05:00.668Z,42.09
2023-03-06T07:07:31.575Z,41.34
2023-03-06T07:09:58.602Z,40.35
2023-03-06T07:12:25.730Z,40.29
2023-03-06T07:14:52.661Z,40.14
2023-03-06T07:17:19.657Z,39.64
2023-03-06T07:19:46.731Z,38.80
2023-03-06T07:22:13.853Z,38.46
2023-03-06T07:24:40.937Z,37.81
2023-03-06T07:27:08.121Z,37.34
2023-03-06T07:29:35.085Z,37.31
2023-03-06T07:32:02.341Z,36.70
2023-03-06T07:34:29.608Z,36.12
2023-03-06T07:36:56.618Z,35.23
2023-03-06T07:39:23.745Z,35.05
2023-03-06T07:41:52.360Z,34.95
2023-03-06T07:44:19.589Z,34.56
2023-03-06T07:46:47.795Z,34.42
2023-03-06T07:49:14.879Z,34.54
2023-03-06T07:51:41.875Z,34.47
2023-03-06T07:54:08.876Z,34.12
2023-03-06T07:56:35.880Z,33.79
2023-03-06T07:59:03.364Z,33.63
2023-03-06T08:01:30.907Z,33.04
2023-03-06T08:03:58.097Z,32.34
2023-03-06T08:06:27.411Z,31.50
2023-03-06T08:08:55.908Z,30.46
2023-03-06T08:11:25.749Z,29.37
2023-03-06T08:13:53.815Z,29.00
2023-03-06T08:16:22.753Z,28.52
2023-03-06T08:18:49.920Z,27.79
2023-03-06T08:21:19.950Z,27.61
2023-03-06T08:23:48.192Z,27.17
2023-03-06T08:26:18.794Z,27.08
2023-03-06T08:28:45.711Z,25.59
2023-03-06T08:31:34.281Z,27.31
2023-03-06T08:34:03.946Z,27.71
2023-03-06T08:36:31.053Z,27.50
2023-03-06T08:38:58.493Z,27.80
2023-03-06T08:41:25.920Z,27.86
2023-03-06T08:43:53.010Z,27.91
2023-03-06T08:46:21.800Z,27.55
2023-03-06T08:48:48.798Z,27.72
2023-03-06T08:51:17.097Z,27.72
2023-03-06T08:53:44.764Z,27.55
2023-03-06T08:56:20.404Z,27.47
2023-03-06T08:58:48.011Z,26.82
2023-03-06T09:01:20.635Z,26.16
2023-03-06T09:03:47.907Z,25.90
2023-03-06T09:06:15.814Z,26.24
2023-03-06T09:08:43.309Z,26.02
2023-03-06T09:11:11.659Z,25.64
2023-03-06T09:13:38.957Z,24.61
2023-03-06T09:16:06.357Z,24.45
2023-03-06T09:18:33.396Z,24.02
2023-03-06T09:21:00.440Z,22.71
2023-03-06T09:23:27.401Z,21.87
2023-03-06T09:25:55.524Z,20.88
2023-03-06T09:28:23.357Z,20.08
2023-03-06T09:30:50.991Z,19.20
2023-03-06T09:33:18.789Z,19.12
2023-03-06T09:35:51.142Z,19.10
2023-03-06T09:38:19.894Z,19.43
2023-03-06T09:41:05.114Z,19.89
2023-03-06T09:43:40.150Z,19.61
2023-03-06T09:46:25.314Z,19.29
2023-03-06T09:49:30.431Z,19.20
2023-03-06T09:52:24.883Z,18.57
2023-03-06T09:55:19.479Z,18.14
2023-03-06T09:58:02.685Z,17.41
2023-03-06T10:00:36.636Z,18.92
2023-03-06T10:03:25.108Z,19.84
2023-03-06T10:06:13.560Z,21.09
2023-03-06T10:08:57.682Z,21.29
2023-03-06T10:11:47.453Z,22.92
2023-03-06T10:14:37.720Z,23.99
2023-03-06T10:17:06.372Z,24.76
2023-03-06T10:19:40.242Z,24.87
2023-03-06T10:22:23.851Z,25.55
2023-03-06T10:24:55.806Z,27.05
2023-03-06T10:27:46.104Z,27.32
2023-03-06T10:30:19.272Z,27.14
2023-03-06T10:32:55.780Z,27.03
2023-03-06T10:35:30.458Z,27.23
2023-03-06T10:38:25.431Z,27.80
2023-03-06T10:41:20.176Z,27.55
2023-03-06T10:44:04.837Z,28.25
2023-03-06T10:46:42.700Z,28.36
2023-03-06T10:49:36.123Z,29.04
2023-03-06T10:52:15.344Z,29.62
2023-03-06T10:54:44.918Z,29.55
2023-03-06T10:57:28.390Z,29.52
2023-03-06T11:00:06.354Z,29.39
2023-03-06T11:02:41.277Z,29.55
2023-03-06T11:05:21.361Z,29.60
2023-03-06T11:07:57.344Z,29.82
2023-03-06T11:10:24.628Z,29.71
2023-03-06T11:13:07.796Z,29.63
2023-03-06T11:15:34.958Z,29.41
2023-03-06T11:18:05.051Z,29.39
2023-03-06T11:20:51.098Z,29.23
2023-03-06T11:23:29.612Z,29.37
2023-03-06T11:26:18.246Z,29.74
2023-03-06T11:28:45.302Z,29.44
2023-03-06T11:31:24.930Z,29.65
2023-03-06T11:33:58.822Z,29.60
2023-03-06T11:36:33.977Z,29.92
2023-03-06T11:39:04.774Z,30.05
2023-03-06T11:41:45.270Z,29.82
2023-03-06T11:45:10.379Z,30.15
2023-03-06T11:47:52.937Z,30.16
2023-03-06T11:50:34.188Z,30.62
2023-03-06T11:53:03.561Z,30.58
2023-03-06T11:55:39.786Z,30.57
2023-03-06T11:58:37.556Z,30.67
2023-03-06T12:01:33.648Z,30.19
2023-03-06T12:04:28.581Z,30.48
2023-03-06T12:07:26.772Z,30.08
2023-03-06T12:10:14.902Z,30.70
2023-03-06T12:13:09.821Z,30.35
2023-03-06T12:16:20.416Z,30.56
2023-03-06T12:19:07.391Z,30.47
2023-03-06T12:21:47.485Z,30.29
2023-03-06T12:24:23.516Z,30.22
2023-03-06T12:27:06.388Z,30.60
2023-03-06T12:29:36.415Z,30.75
2023-03-06T12:33:08.126Z,31.37
2023-03-06T12:35:55.159Z,31.41
2023-03-06T12:38:40.815Z,31.37
2023-03-06T12:41:13.670Z,31.66
2023-03-06T12:44:11.872Z,31.29
2023-03-06T12:46:49.758Z,31.60
2023-03-06T12:49:32.805Z,31.34
2023-03-06T12:52:02.696Z,31.38
2023-03-06T12:54:33.824Z,31.20
2023-03-06T12:57:01.365Z,30.88
2023-03-06T12:59:44.853Z,31.72
2023-03-06T13:02:35.907Z,31.30
2023-03-06T13:05:36.363Z,31.15
2023-03-06T13:08:35.717Z,31.75
2023-03-06T13:11:37.049Z,31.43
2023-03-06T13:14:25.082Z,31.82
2023-03-06T13:16:53.528Z,32.40
2023-03-06T13:19:29.567Z,33.03
2023-03-06T13:21:57.375Z,33.66
2023-03-06T13:24:27.034Z,34.63
2023-03-06T13:27:08.895Z,35.25
2023-03-06T13:29:38.928Z,35.55
2023-03-06T13:32:17.471Z,36.39
2023-03-06T13:34:50.234Z,36.53
2023-03-06T13:37:17.347Z,36.67
2023-03-06T13:39:59.362Z,37.09
2023-03-06T13:42:30.807Z,37.03
2023-03-06T13:45:06.209Z,37.44
2023-03-06T13:48:33.821Z,37.69
2023-03-06T13:50:45.167Z,38.10
2023-03-06T13:53:41.059Z,38.43
2023-03-06T13:56:45.518Z,38.99
2023-03-06T13:59:37.954Z,39.42
2023-03-06T14:02:17.352Z,39.37
2023-03-06T14:04:55.809Z,39.90
2023-03-06T14:07:31.747Z,40.26
2023-03-06T14:10:33.828Z,40.50
2023-03-06T14:13:13.634Z,40.29
2023-03-06T14:16:48.656Z,40.79
2023-03-06T14:19:19.110Z,40.61
2023-03-06T14:21:50.030Z,41.28
2023-03-06T14:24:20.231Z,41.32
2023-03-06T14:26:51.816Z,41.50
2023-03-06T14:29:24.467Z,41.97
2023-03-06T14:31:54.012Z,42.06
2023-03-06T14:34:28.181Z,41.93
2023-03-06T14:37:00.354Z,42.48
2023-03-06T14:39:38.681Z,42.79
2023-03-06T14:42:19.148Z,43.40
2023-03-06T14:44:47.412Z,43.20
2023-03-06T14:47:32.356Z,44.11
2023-03-06T14:50:18.043Z,44.27
2023-03-06T14:52:45.669Z,43.90
2023-03-06T14:55:19.506Z,44.42
2023-03-06T14:58:11.060Z,44.63
2023-03-06T15:00:44.257Z,44.33
2023-03-06T15:03:22.038Z,44.52
2023-03-06T15:05:50.489Z,44.71
2023-03-06T15:08:22.304Z,44.87
2023-03-06T15:11:05.455Z,45.01
2023-03-06T15:13:34.115Z,44.71
2023-03-06T15:16:04.784Z,44.93
2023-03-06T15:18:54.491Z,45.26
2023-03-06T15:21:23.146Z,45.02
2023-03-06T15:23:54.052Z,45.20
2023-03-06T15:26:40.720Z,45.65
2023-03-06T15:29:11.128Z,45.28
2023-03-06T15:31:40.842Z,45.92
2023-03-06T15:34:08.017Z,45.56
2023-03-06T15:36:48.341Z,45.90
2023-03-06T15:39:28.431Z,46.30
2023-03-06T15:42:18.375Z,46.36
2023-03-06T15:44:51.701Z,46.31
2023-03-06T15:47:19.672Z,46.32
2023-03-06T15:49:46.938Z,46.11
2023-03-06T15:52:14.023Z,46.33
2023-03-06T15:54:41.075Z,46.03
2023-03-06T15:57:25.110Z,46.34
2023-03-06T15:59:53.408Z,46.09
2023-03-06T16:02:22.084Z,46.76
2023-03-06T16:04:49.672Z,46.89
2023-03-06T16:07:22.475Z,46.67
2023-03-06T16:09:49.529Z,46.93
2023-03-06T16:12:18.752Z,46.87
2023-03-06T16:14:48.842Z,47.28
2023-03-06T16:17:16.795Z,46.68
2023-03-06T16:19:44.453Z,47.04
2023-03-06T16:22:11.614Z,46.82
2023-03-06T16:24:38.764Z,47.04
2023-03-06T16:27:07.177Z,47.47
2023-03-06T16:29:34.500Z,47.29
2023-03-06T16:32:02.097Z,47.51
2023-03-06T16:34:29.272Z,47.31
2023-03-06T16:36:56.575Z,47.85
2023-03-06T16:39:24.573Z,47.46
2023-03-06T16:41:52.365Z,47.62
2023-03-06T16:44:20.903Z,48.24
2023-03-06T16:46:52.483Z,48.26
2023-03-06T16:49:25.556Z,51.08
2023-03-06T16:51:53.869Z,51.21
2023-03-06T16:54:22.021Z,54.05
2023-03-06T16:56:49.108Z,52.86
2023-03-06T16:59:16.179Z,52.38
2023-03-06T17:01:43.489Z,52.70
2023-03-06T17:04:10.939Z,52.40
2023-03-06T17:06:38.703Z,52.48
2023-03-06T17:09:05.830Z,52.42
2023-03-06T17:11:33.037Z,53.10
2023-03-06T17:14:00.487Z,52.90
2023-03-06T17:16:27.473Z,53.29
2023-03-06T17:18:55.273Z,53.09
2023-03-06T17:21:22.357Z,53.64
2023-03-06T17:23:51.027Z,53.60
2023-03-06T17:26:19.509Z,53.85
2023-03-06T17:28:47.609Z,54.01
2023-03-06T17:31:15.891Z,54.22
2023-03-06T17:33:43.561Z,53.82
2023-03-06T17:36:11.062Z,54.21
2023-03-06T17:38:39.842Z,54.61
2023-03-06T17:41:09.455Z,54.79
2023-03-06T17:43:37.814Z,55.61
2023-03-06T17:46:06.601Z,54.75
2023-03-06T17:48:34.465Z,54.94
2023-03-06T17:51:01.973Z,55.12
2023-03-06T17:53:29.282Z,55.19
2023-03-06T17:55:58.392Z,55.20
2023-03-06T17:58:28.588Z,54.80
2023-03-06T18:00:55.682Z,55.11
2023-03-06T18:03:22.876Z,55.16
2023-03-06T18:06:04.423Z,55.28
2023-03-06T18:08:32.418Z,54.93
2023-03-06T18:11:00.924Z,54.92
2023-03-06T18:13:28.141Z,55.13
2023-03-06T18:15:55.615Z,55.01
2023-03-06T18:18:23.534Z,55.42
2023-03-06T18:20:50.589Z,55.17
2023-03-06T18:23:17.690Z,55.47
2023-03-06T18:25:44.876Z,55.54
2023-03-06T18:28:12.066Z,55.10
2023-03-06T18:30:41.505Z,55.40
2023-03-06T18:33:10.244Z,55.51
2023-03-06T18:35:37.309Z,55.63
2023-03-06T18:38:04.405Z,55.88
2023-03-06T18:40:31.570Z,56.00
2023-03-06T18:42:58.652Z,55.99
2023-03-06T18:45:25.901Z,55.92
2023-03-06T18:47:52.908Z,55.52
2023-03-06T18:50:19.918Z,55.82
2023-03-06T18:52:47.043Z,55.61
2023-03-06T18:55:14.135Z,56.00
2023-03-06T18:57:41.617Z,56.11
2023-03-06T19:00:09.710Z,55.81
2023-03-06T19:02:36.809Z,55.84
2023-03-06T19:05:03.850Z,55.67
2023-03-06T19:07:31.057Z,55.63
2023-03-06T19:09:58.128Z,55.66
2023-03-06T19:12:25.263Z,55.86
2023-03-06T19:14:52.353Z,55.35
2023-03-06T19:17:21.412Z,55.44
2023-03-06T19:19:50.504Z,55.75
2023-03-06T19:22:17.715Z,55.69
2023-03-06T19:24:44.698Z,55.58
2023-03-06T19:27:11.979Z,55.12
2023-03-06T19:29:42.165Z,55.69
2023-03-06T19:32:09.270Z,55.67
2023-03-06T19:34:36.456Z,55.44
2023-03-06T19:37:03.680Z,55.45
2023-03-06T19:39:30.843Z,55.39
2023-03-06T19:41:57.838Z,55.54
2023-03-06T19:44:25.421Z,55.65
2023-03-06T19:46:52.451Z,55.15
2023-03-06T19:49:22.361Z,55.79
2023-03-06T19:51:49.447Z,55.30
2023-03-06T19:54:16.418Z,55.75
2023-03-06T19:56:43.583Z,55.53
2023-03-06T19:59:11.048Z,56.03
2023-03-06T20:01:38.796Z,55.82
2023-03-06T20:04:06.080Z,56.30
2023-03-06T20:06:36.881Z,56.43
2023-03-06T20:09:08.439Z,56.64
2023-03-06T20:11:35.695Z,56.21
2023-03-06T20:14:05.029Z,56.24
2023-03-06T20:16:33.932Z,56.30
2023-03-06T20:19:01.648Z,56.27
2023-03-06T20:21:31.350Z,56.58
2023-03-06T20:23:59.271Z,56.21
2023-03-06T20:26:27.776Z,56.22
2023-03-06T20:28:55.180Z,56.25
2023-03-06T20:31:25.304Z,56.33
2023-03-06T20:33:53.990Z,56.45
2023-03-06T20:36:24.529Z,56.41
2023-03-06T20:38:54.981Z,56.77
2023-03-06T20:41:25.860Z,56.91
2023-03-06T20:43:53.633Z,56.96
2023-03-06T20:46:22.032Z,56.79
2023-03-06T20:48:50.862Z,56.23
2023-03-06T20:51:21.149Z,56.46
2023-03-06T20:53:50.101Z,56.63
2023-03-06T20:56:19.975Z,56.59
2023-03-06T20:58:47.774Z,56.41
2023-03-06T21:01:21.696Z,56.21
2023-03-06T21:03:51.369Z,56.57
2023-03-06T21:06:19.907Z,56.70
2023-03-06T21:08:47.714Z,56.48
2023-03-06T21:11:15.803Z,56.47
2023-03-06T21:13:42.827Z,56.84
2023-03-06T21:16:16.147Z,57.00
2023-03-06T21:18:43.806Z,56.53
2023-03-06T21:21:14.114Z,56.79
2023-03-06T21:23:41.332Z,56.47
2023-03-06T21:26:11.687Z,56.57
2023-03-06T21:28:39.831Z,56.86
2023-03-06T21:31:08.689Z,56.54
2023-03-06T21:33:36.722Z,56.72
2023-03-06T21:36:04.117Z,56.48
2023-03-06T21:38:31.240Z,56.60
2023-03-06T21:41:14.152Z,56.11
2023-03-06T21:43:41.859Z,56.31
2023-03-06T21:46:09.353Z,56.74
2023-03-06T21:48:36.864Z,56.80
2023-03-06T21:51:09.230Z,56.67
2023-03-06T21:53:37.027Z,56.52
2023-03-06T21:56:05.293Z,56.62
2023-03-06T21:58:32.746Z,56.79
2023-03-06T22:00:59.880Z,56.94
2023-03-06T22:03:28.742Z,56.92
2023-03-06T22:05:56.896Z,56.80
2023-03-06T22:08:25.383Z,56.47
2023-03-06T22:10:52.440Z,56.89
2023-03-06T22:13:19.486Z,57.16
2023-03-06T22:15:53.567Z,57.33
2023-03-06T22:18:20.641Z,57.28
2023-03-06T22:20:47.623Z,57.07
2023-03-06T22:23:14.761Z,57.13
2023-03-06T22:25:41.821Z,57.56
2023-03-06T22:28:08.811Z,57.04
2023-03-06T22:30:35.773Z,57.26
2023-03-06T22:33:02.950Z,57.37
2023-03-06T22:35:30.063Z,57.65
2023-03-06T22:37:58.718Z,57.78
2023-03-06T22:40:26.003Z,57.89
2023-03-06T22:42:53.059Z,57.61
2023-03-06T22:45:20.161Z,57.65
2023-03-06T22:47:47.136Z,57.67
2023-03-06T22:50:14.613Z,57.94
2023-03-06T22:52:41.607Z,57.51
2023-03-06T22:55:09.686Z,57.99
2023-03-06T22:57:36.691Z,58.41
2023-03-06T23:00:04.175Z,57.98
2023-03-06T23:02:35.492Z,58.39
2023-03-06T23:05:02.528Z,57.81
2023-03-06T23:07:30.600Z,58.02
2023-03-06T23:09:58.182Z,57.90
2023-03-06T23:12:25.164Z,58.60
2023-03-06T23:14:52.242Z,58.58
2023-03-06T23:17:19.223Z,58.24
2023-03-06T23:19:49.541Z,57.99
2023-03-06T23:22:16.790Z,58.32
2023-03-06T23:24:43.843Z,58.00
2023-03-06T23:27:11.316Z,58.08
2023-03-06T23:29:38.273Z,57.96
2023-03-06T23:32:05.725Z,58.17
2023-03-06T23:34:32.630Z,58.30
2023-03-06T23:36:59.693Z,58.23
2023-03-06T23:39:26.779Z,58.04
2023-03-06T23:41:53.724Z,58.17
2023-03-06T23:44:20.884Z,57.94
2023-03-06T23:46:47.826Z,57.79
2023-03-06T23:49:15.222Z,58.48
2023-03-06T23:51:42.573Z,58.39
2023-03-06T23:54:10.765Z,58.18
2023-03-06T23:56:37.963Z,58.17
2023-03-06T23:59:05.003Z,58.18
